Terminal Aerodrome Forecast
Issued by NWS Wilmington, OH

Current Version | Previous Version | Graphics & Text | Print | Product List | Glossary On
Versions: 1 2 3 4 5 6 7 8 9 10 11 12 13 14 15 16 17 18 19
046
FTUS41 KILN 101049 AAB
TAFILN
TAF AMD
KILN 101049Z 1011/1106 26014KT 2SM -SN OVC025
     FM101200 27014G22KT 1SM -SHSN OVC015
     FM101600 27016G24KT 4SM -SHSN OVC022
     FM101900 27015G23KT P6SM OVC025
     FM102300 28010KT P6SM OVC035=

USA.gov is the U.S. government's official web portal to all federal, state and local government web resources and services.